Lopez Island, WA (98261)

12:51 AM PDT on August 25, 2016 (GMT -0700)
Lopez Island, WA | | Change Station

Elev 148 ft 48.54 °N, 122.91 °W | Updated 364 days ago

Clear
Clear
59 °F
Feels Like 59 °F
N
3
Wind Variable Wind from NNW
Gusts mph

Today
High -- | Low -- °F
--% Chance of Precip.
Yesterday
High -- | Low -- °F
Precip. -- in
Pressure 30.14 in
Visibility 10.0 miles
Clouds Clear
Dew Point 51 °F
Humidity 74%
Rainfall in
Snow Depth Not available.
6:19 AM 8:05 PM
Waning Gibbous, 48% visible
METAR KFHR 250653Z AUTO 00000KT 10SM CLR 17/09 A3014 RMK AO2 SLP206 T01720089
Pressure 30.14 in
Visibility 10.0 miles
Clouds Clear
Dew Point 51 °F
Humidity 74%
Rainfall in
Snow Depth Not available.
6:19 AM 8:05 PM
Waning Gibbous, 48% visible
METAR KFHR 250653Z AUTO 00000KT 10SM CLR 17/09 A3014 RMK AO2 SLP206 T01720089

10-Day Weather Forecast

Almanac

Astronomy

Aug. 25, 2016 Rise Set
Actual Time
Civil Twilight
Nautical Twilight
Astronomical Twilight
Moon
Length of Visible Light
Length of Day
Tomorrow will be .
, % of the Moon is Illuminated

Today's Extremes

State Highs State Lows

Community

WunderPhotos

Upload Photos

1,934,814 photos uploaded!

WunderBlog® & News

Nearby

Air Quality

  Air Quality AQ Index Pollutant
Not available.

Snow Depth

Station Depth Elevation

Earthquake Activity

City Distance Mag. Time & Date
Minimum magnitude displayed is 2.5.

Coastal Water Temperatures

Place Temperature

Stations

Nearby Weather Stations

Station Location Temp. Windchill Dew Point Humidity Wind Precip. Elev Updated Type
                   

Watches & Warnings

There are currently no watches in effect.